createdAt,value
2022-10-24T00:01:50.641Z,25.10
2022-10-24T00:04:37.884Z,23.17
2022-10-24T00:07:24.641Z,24.17
2022-10-24T00:10:15.638Z,23.58
2022-10-24T00:13:01.740Z,24.40
2022-10-24T00:15:49.170Z,23.23
2022-10-24T00:18:35.088Z,24.17
2022-10-24T00:21:20.903Z,24.38
2022-10-24T00:24:07.893Z,25.13
2022-10-24T00:26:53.486Z,25.33
2022-10-24T00:29:39.462Z,24.40
2022-10-24T00:32:25.109Z,24.05
2022-10-24T00:35:11.402Z,24.92
2022-10-24T00:37:56.942Z,24.77
2022-10-24T00:40:42.762Z,25.10
2022-10-24T00:43:28.266Z,24.95
2022-10-24T00:46:15.617Z,23.98
2022-10-24T00:49:00.929Z,23.42
2022-10-24T00:51:49.067Z,24.95
2022-10-24T00:54:36.040Z,26.15
2022-10-24T00:57:34.586Z,24.48
2022-10-24T01:00:26.772Z,23.15
2022-10-24T01:03:12.956Z,25.77
2022-10-24T01:06:21.495Z,24.73
2022-10-24T01:09:34.813Z,25.45
2022-10-24T01:12:45.644Z,22.75
2022-10-24T01:15:53.432Z,24.20
2022-10-24T01:18:59.068Z,23.88
2022-10-24T01:22:19.468Z,23.58
2022-10-24T01:25:18.208Z,24.20
2022-10-24T01:28:34.447Z,25.02
2022-10-24T01:31:30.260Z,24.45
2022-10-24T01:34:23.913Z,24.20
2022-10-24T01:37:16.274Z,23.67
2022-10-24T01:40:08.998Z,25.58
2022-10-24T01:42:58.702Z,23.10
2022-10-24T01:45:47.377Z,22.77
2022-10-24T01:48:42.922Z,24.00
2022-10-24T01:51:30.493Z,22.83
2022-10-24T01:54:17.057Z,23.23
2022-10-24T01:57:03.010Z,23.52
2022-10-24T01:59:49.117Z,23.90
2022-10-24T02:02:42.007Z,23.80
2022-10-24T02:05:36.847Z,24.90
2022-10-24T02:08:29.437Z,22.52
2022-10-24T02:11:15.154Z,22.73
2022-10-24T02:14:14.458Z,24.92
2022-10-24T02:17:01.229Z,22.75
2022-10-24T02:19:48.390Z,23.30
2022-10-24T02:22:39.066Z,22.80
2022-10-24T02:28:14.589Z,21.60
2022-10-24T02:31:05.186Z,22.52
2022-10-24T02:33:51.856Z,22.48
2022-10-24T02:36:39.359Z,20.20
2022-10-24T02:39:26.459Z,22.08
2022-10-24T02:42:13.296Z,21.27
2022-10-24T02:44:59.420Z,21.90
2022-10-24T02:47:46.246Z,22.02
2022-10-24T02:50:32.646Z,20.02
2022-10-24T02:53:20.606Z,21.05
2022-10-24T02:56:06.552Z,20.85
2022-10-24T02:58:52.484Z,20.70
2022-10-24T03:01:38.353Z,22.30
2022-10-24T03:04:24.155Z,20.77
2022-10-24T03:07:10.320Z,21.65
2022-10-24T03:09:56.275Z,21.25
2022-10-24T03:12:41.933Z,21.15
2022-10-24T03:15:27.854Z,21.45
2022-10-24T03:18:13.872Z,19.85
2022-10-24T03:20:59.771Z,21.38
2022-10-24T03:23:45.499Z,22.27
2022-10-24T03:26:31.563Z,24.38
2022-10-24T03:29:18.832Z,20.88
2022-10-24T03:32:05.684Z,22.92
2022-10-24T03:34:51.347Z,22.48
2022-10-24T03:37:37.343Z,21.52
2022-10-24T03:40:22.739Z,22.17
2022-10-24T03:43:08.781Z,20.95
2022-10-24T03:45:54.633Z,19.95
2022-10-24T03:48:40.517Z,23.15
2022-10-24T03:51:26.487Z,23.73
2022-10-24T03:54:15.203Z,22.52
2022-10-24T03:57:00.498Z,21.90
2022-10-24T03:59:46.788Z,20.65
2022-10-24T04:02:32.567Z,28.42
2022-10-24T04:05:18.472Z,23.55
2022-10-24T04:08:04.197Z,27.75
2022-10-24T04:10:50.199Z,21.98
2022-10-24T04:13:36.005Z,23.40
2022-10-24T04:16:24.055Z,21.42
2022-10-24T04:19:10.802Z,24.08
2022-10-24T04:21:56.323Z,20.13
2022-10-24T04:24:41.810Z,19.13
2022-10-24T04:27:27.975Z,20.95
2022-10-24T04:30:16.510Z,18.77
2022-10-24T04:33:02.577Z,19.65
2022-10-24T04:35:48.800Z,22.52
2022-10-24T04:38:34.798Z,21.35
2022-10-24T04:41:20.297Z,19.90
2022-10-24T04:44:06.277Z,20.17
2022-10-24T04:46:51.889Z,20.25
2022-10-24T04:49:37.710Z,19.40
2022-10-24T04:52:23.176Z,28.42
2022-10-24T04:55:09.102Z,48.63
2022-10-24T04:57:54.428Z,28.30
2022-10-24T05:00:40.182Z,19.63
2022-10-24T05:03:25.612Z,18.55
2022-10-24T05:06:11.709Z,19.15
2022-10-24T05:08:57.239Z,17.85
2022-10-24T05:11:43.270Z,17.92
2022-10-24T05:14:28.751Z,16.92
2022-10-24T05:17:14.578Z,16.80
2022-10-24T05:20:00.212Z,16.58
2022-10-24T05:22:46.286Z,16.02
2022-10-24T05:25:32.397Z,16.38
2022-10-24T05:28:18.401Z,17.08
2022-10-24T05:31:04.314Z,16.70
2022-10-24T05:33:50.138Z,17.08
2022-10-24T05:36:35.451Z,17.13
2022-10-24T05:39:21.156Z,17.15
2022-10-24T05:42:06.824Z,27.50
2022-10-24T05:44:52.957Z,28.67
2022-10-24T05:47:38.453Z,37.13
2022-10-24T05:50:24.082Z,28.92
2022-10-24T05:53:09.595Z,34.67
2022-10-24T05:55:55.425Z,37.38
2022-10-24T05:58:40.951Z,24.48
2022-10-24T06:01:27.282Z,43.20
2022-10-24T06:04:13.952Z,32.75
2022-10-24T06:07:00.354Z,23.95
2022-10-24T06:09:45.743Z,30.40
2022-10-24T06:12:31.822Z,30.10
2022-10-24T06:15:17.484Z,27.38
2022-10-24T06:18:03.445Z,23.42
2022-10-24T06:20:52.774Z,20.10
2022-10-24T06:23:41.396Z,20.15
2022-10-24T06:26:26.957Z,21.30
2022-10-24T06:29:12.642Z,30.98
2022-10-24T06:31:58.089Z,44.20
2022-10-24T06:34:43.881Z,38.20
2022-10-24T06:37:30.282Z,25.05
2022-10-24T06:40:17.591Z,20.83
2022-10-24T06:43:03.436Z,22.45
2022-10-24T06:45:49.703Z,18.85
2022-10-24T06:48:36.431Z,18.20
2022-10-24T06:51:22.900Z,18.67
2022-10-24T06:54:08.908Z,21.85
2022-10-24T06:56:54.383Z,38.13
2022-10-24T06:59:39.727Z,29.50
2022-10-24T07:02:25.833Z,22.77
2022-10-24T07:05:12.866Z,23.42
2022-10-24T07:07:58.929Z,23.65
2022-10-24T07:10:44.370Z,26.95
2022-10-24T07:13:30.704Z,26.50
2022-10-24T07:16:16.334Z,30.85
2022-10-24T07:19:02.246Z,25.35
2022-10-24T07:21:48.182Z,25.30
2022-10-24T07:24:34.368Z,23.73
2022-10-24T07:27:20.568Z,25.23
2022-10-24T07:30:08.213Z,19.70
2022-10-24T07:32:53.641Z,18.65
2022-10-24T07:35:43.142Z,17.15
2022-10-24T07:38:28.541Z,19.63
2022-10-24T07:41:14.387Z,17.67
2022-10-24T07:44:02.200Z,18.02
2022-10-24T07:46:48.396Z,15.05
2022-10-24T07:49:33.893Z,15.80
2022-10-24T07:52:19.695Z,16.95
2022-10-24T07:55:05.857Z,13.73
2022-10-24T07:57:51.821Z,14.77
2022-10-24T08:00:42.549Z,18.58
2022-10-24T08:03:30.378Z,15.23
2022-10-24T08:06:18.426Z,15.98
2022-10-24T08:09:04.048Z,17.50
2022-10-24T08:11:49.653Z,18.05
2022-10-24T08:14:38.209Z,16.88
2022-10-24T08:17:24.680Z,13.07
2022-10-24T08:20:11.154Z,12.90
2022-10-24T08:22:57.277Z,11.60
2022-10-24T08:25:42.974Z,12.70
2022-10-24T08:28:28.344Z,11.00
2022-10-24T08:31:19.658Z,11.43
2022-10-24T08:34:06.141Z,11.52
2022-10-24T08:36:52.053Z,11.02
2022-10-24T08:39:38.397Z,11.02
2022-10-24T08:42:24.959Z,11.98
2022-10-24T08:45:14.156Z,11.10
2022-10-24T08:48:05.725Z,12.13
2022-10-24T08:50:54.017Z,11.80
2022-10-24T08:53:40.647Z,11.80
2022-10-24T08:56:29.024Z,11.30
2022-10-24T08:59:15.221Z,10.57
2022-10-24T09:02:07.909Z,10.65
2022-10-24T09:04:59.632Z,10.25
2022-10-24T09:07:46.388Z,9.45
2022-10-24T09:10:46.836Z,10.30
2022-10-24T09:13:35.949Z,9.80
2022-10-24T09:16:23.039Z,12.18
2022-10-24T09:19:13.757Z,11.38
2022-10-24T09:22:00.226Z,10.18
2022-10-24T09:24:51.544Z,8.63
2022-10-24T09:27:39.041Z,10.40
2022-10-24T09:30:30.021Z,10.25
2022-10-24T09:33:28.894Z,9.68
2022-10-24T09:36:17.296Z,9.27
2022-10-24T09:39:26.838Z,9.27
2022-10-24T09:42:21.925Z,10.40
2022-10-24T09:45:29.210Z,9.75
2022-10-24T09:48:20.165Z,10.02
2022-10-24T09:51:07.335Z,11.13
2022-10-24T09:54:25.492Z,11.10
2022-10-24T10:00:04.914Z,9.75
2022-10-24T10:03:23.567Z,10.20
2022-10-24T10:06:18.456Z,9.80
2022-10-24T10:09:12.751Z,9.88
2022-10-24T10:12:02.765Z,9.60
2022-10-24T10:17:34.885Z,8.88
2022-10-24T10:20:47.147Z,8.02
2022-10-24T10:23:37.083Z,9.05
2022-10-24T10:26:27.410Z,8.85
2022-10-24T10:29:16.405Z,8.63
2022-10-24T10:32:26.161Z,8.52
2022-10-24T10:35:21.138Z,9.05
2022-10-24T10:38:44.478Z,9.02
2022-10-24T10:41:39.298Z,7.80
2022-10-24T10:44:51.620Z,8.52
2022-10-24T10:47:59.150Z,7.68
2022-10-24T10:51:00.532Z,7.68
2022-10-24T10:53:57.450Z,6.97
2022-10-24T10:56:49.457Z,8.20
2022-10-24T11:00:10.725Z,7.30
2022-10-24T11:03:22.772Z,6.50
2022-10-24T11:06:34.746Z,6.95
2022-10-24T11:09:39.455Z,7.30
2022-10-24T11:12:31.788Z,7.90
2022-10-24T11:15:26.004Z,7.13
2022-10-24T11:18:20.851Z,6.82
2022-10-24T11:21:12.515Z,6.97
2022-10-24T11:24:02.703Z,6.70
2022-10-24T11:27:01.818Z,7.10
2022-10-24T11:30:01.046Z,7.07
2022-10-24T11:32:53.541Z,6.65
2022-10-24T11:35:51.487Z,6.93
2022-10-24T11:38:45.206Z,6.97
2022-10-24T11:41:51.373Z,6.55
2022-10-24T11:44:50.391Z,6.68
2022-10-24T11:47:48.397Z,6.63
2022-10-24T11:50:54.527Z,6.90
2022-10-24T11:53:50.003Z,6.85
2022-10-24T11:56:52.179Z,7.22
2022-10-24T11:59:40.923Z,6.90
2022-10-24T12:02:44.381Z,6.45
2022-10-24T12:05:53.043Z,7.30
2022-10-24T12:09:05.454Z,7.43
2022-10-24T12:12:03.215Z,18.75
2022-10-24T12:14:56.927Z,8.38
2022-10-24T12:18:12.070Z,8.35
2022-10-24T12:21:03.784Z,6.97
2022-10-24T12:23:57.071Z,7.20
2022-10-24T12:26:44.179Z,7.28
2022-10-24T12:29:34.573Z,7.03
2022-10-24T12:35:30.269Z,7.35
2022-10-24T12:38:29.040Z,9.13
2022-10-24T12:41:32.750Z,8.80
2022-10-24T12:44:33.897Z,5.80
2022-10-24T12:47:35.522Z,6.43
2022-10-24T12:50:21.492Z,6.53
2022-10-24T12:53:19.568Z,7.00
2022-10-24T12:56:07.474Z,8.32
2022-10-24T12:58:58.057Z,7.63
2022-10-24T13:01:45.089Z,6.38
2022-10-24T13:04:41.386Z,9.23
2022-10-24T13:07:58.269Z,11.85
2022-10-24T13:10:58.933Z,10.93
2022-10-24T13:13:55.017Z,10.48
2022-10-24T13:16:50.713Z,14.80
2022-10-24T13:19:36.785Z,14.23
2022-10-24T13:22:35.789Z,6.80
2022-10-24T13:25:35.757Z,10.88
2022-10-24T13:28:22.304Z,9.68
2022-10-24T13:31:08.204Z,7.30
2022-10-24T13:34:13.145Z,8.52
2022-10-24T13:37:25.475Z,7.53
2022-10-24T13:40:18.187Z,9.02
2022-10-24T13:43:07.852Z,8.18
2022-10-24T13:45:53.503Z,10.48
2022-10-24T13:48:40.576Z,6.50
2022-10-24T13:51:36.113Z,6.82
2022-10-24T13:54:27.441Z,6.82
2022-10-24T13:57:35.951Z,9.20
2022-10-24T14:00:25.841Z,11.85
2022-10-24T14:03:17.332Z,11.52
2022-10-24T14:06:06.601Z,10.00
2022-10-24T14:09:05.608Z,8.98
2022-10-24T14:11:56.712Z,8.40
2022-10-24T14:14:42.418Z,9.55
2022-10-24T14:17:31.394Z,10.00
2022-10-24T14:20:26.872Z,13.27
2022-10-24T14:23:23.764Z,12.55
2022-10-24T14:26:12.203Z,21.15
2022-10-24T14:29:00.892Z,20.50
2022-10-24T14:31:46.549Z,22.63
2022-10-24T14:34:36.271Z,31.00
2022-10-24T14:37:35.051Z,32.37
2022-10-24T14:40:20.783Z,48.15
2022-10-24T14:43:06.105Z,49.50
2022-10-24T14:46:10.120Z,31.67
2022-10-24T14:48:56.140Z,19.13
2022-10-24T14:51:42.776Z,20.33
2022-10-24T14:54:33.543Z,22.10
2022-10-24T14:57:21.001Z,23.27
2022-10-24T15:00:08.930Z,22.13
2022-10-24T15:02:57.704Z,39.05
2022-10-24T15:05:54.089Z,27.98
2022-10-24T15:11:29.107Z,32.90
2022-10-24T15:14:31.753Z,34.85
2022-10-24T15:17:17.047Z,26.70
2022-10-24T15:20:03.900Z,20.88
2022-10-24T15:22:59.732Z,20.75
2022-10-24T15:25:45.818Z,21.50
2022-10-24T15:29:03.520Z,30.95
2022-10-24T15:31:51.357Z,34.80
2022-10-24T15:34:37.017Z,46.63
2022-10-24T15:37:24.754Z,35.75
2022-10-24T15:40:22.434Z,34.85
2022-10-24T15:43:12.501Z,21.92
2022-10-24T15:45:58.190Z,30.42
2022-10-24T15:48:44.210Z,45.28
2022-10-24T15:51:30.444Z,43.75
2022-10-24T15:54:18.424Z,40.35
2022-10-24T15:57:05.513Z,129.07
2022-10-24T15:59:51.748Z,63.67
2022-10-24T16:02:37.345Z,46.80
2022-10-24T16:05:26.202Z,144.93
2022-10-24T16:08:14.560Z,57.40
2022-10-24T16:11:00.534Z,47.78
2022-10-24T16:13:46.327Z,49.45
2022-10-24T16:16:32.126Z,43.83
2022-10-24T16:19:17.949Z,59.28
2022-10-24T16:22:03.904Z,61.47
2022-10-24T16:24:49.277Z,71.60
2022-10-24T16:27:34.991Z,50.15
2022-10-24T16:30:22.761Z,48.50
2022-10-24T16:33:09.082Z,76.63
2022-10-24T16:35:54.623Z,67.40
2022-10-24T16:38:40.209Z,60.00
2022-10-24T16:41:25.976Z,94.50
2022-10-24T16:44:13.273Z,43.22
2022-10-24T16:46:58.841Z,41.90
2022-10-24T16:49:47.725Z,42.47
2022-10-24T16:52:33.906Z,48.20
2022-10-24T16:55:20.730Z,54.50
2022-10-24T16:58:06.280Z,46.45
2022-10-24T17:01:02.054Z,57.22
2022-10-24T17:03:47.850Z,57.95
2022-10-24T17:06:34.223Z,55.03
2022-10-24T17:09:19.841Z,54.55
2022-10-24T17:12:06.382Z,98.13
2022-10-24T17:14:52.097Z,65.70
2022-10-24T17:17:39.882Z,59.58
2022-10-24T17:20:25.329Z,56.72
2022-10-24T17:23:13.909Z,36.55
2022-10-24T17:26:00.108Z,37.13
2022-10-24T17:28:46.434Z,40.60
2022-10-24T17:31:32.131Z,43.65
2022-10-24T17:34:18.455Z,44.58
2022-10-24T17:37:24.641Z,37.83
2022-10-24T17:40:17.869Z,37.03
2022-10-24T17:43:06.324Z,43.38
2022-10-24T17:45:53.028Z,38.33
2022-10-24T17:48:39.140Z,32.47
2022-10-24T17:51:26.619Z,29.38
2022-10-24T17:54:12.430Z,43.85
2022-10-24T17:56:58.279Z,32.13
2022-10-24T17:59:43.955Z,37.85
2022-10-24T18:02:30.444Z,19.45
2022-10-24T18:05:16.930Z,25.70
2022-10-24T18:08:02.454Z,25.77
2022-10-24T18:10:48.308Z,21.02
2022-10-24T18:13:36.449Z,17.70
2022-10-24T18:16:22.220Z,18.98
2022-10-24T18:19:08.401Z,19.33
2022-10-24T18:21:54.216Z,9.77
2022-10-24T18:24:40.341Z,10.80
2022-10-24T18:27:25.623Z,28.02
2022-10-24T18:30:12.112Z,13.43
2022-10-24T18:32:57.671Z,10.65
2022-10-24T18:35:43.893Z,11.23
2022-10-24T18:38:33.336Z,18.15
2022-10-24T18:41:41.832Z,8.43
2022-10-24T18:44:33.625Z,10.68
2022-10-24T18:47:23.228Z,10.20
2022-10-24T18:50:16.119Z,9.23
2022-10-24T18:53:11.783Z,13.45
2022-10-24T18:55:57.569Z,11.50
2022-10-24T18:58:43.380Z,11.98
2022-10-24T19:01:38.499Z,19.85
2022-10-24T19:04:25.730Z,13.02
2022-10-24T19:07:11.617Z,14.13
2022-10-24T19:09:57.528Z,24.70
2022-10-24T19:12:43.255Z,19.48
2022-10-24T19:15:29.254Z,14.77
2022-10-24T19:18:16.241Z,13.23
2022-10-24T19:21:04.393Z,24.20
2022-10-24T19:23:50.459Z,19.33
2022-10-24T19:26:37.177Z,24.23
2022-10-24T19:29:22.829Z,21.17
2022-10-24T19:32:08.443Z,24.80
2022-10-24T19:34:53.896Z,14.52
2022-10-24T19:37:40.099Z,31.58
2022-10-24T19:40:25.511Z,18.92
2022-10-24T19:43:11.241Z,8.15
2022-10-24T19:49:03.725Z,9.57
2022-10-24T19:51:51.033Z,5.80
2022-10-24T19:54:36.764Z,6.13
2022-10-24T19:57:22.081Z,4.60
2022-10-24T20:00:08.830Z,5.30
2022-10-24T20:02:58.706Z,5.68
2022-10-24T20:05:45.772Z,3.80
2022-10-24T20:08:31.480Z,4.13
2022-10-24T20:11:20.431Z,3.75
2022-10-24T20:14:06.696Z,5.63
2022-10-24T20:16:52.285Z,3.85
2022-10-24T20:19:37.725Z,3.72
2022-10-24T20:22:23.229Z,3.40
2022-10-24T20:25:08.925Z,4.28
2022-10-24T20:27:54.663Z,5.20
2022-10-24T20:30:45.797Z,4.50
2022-10-24T20:33:31.655Z,13.77
2022-10-24T20:36:17.673Z,15.65
2022-10-24T20:39:05.020Z,11.07
2022-10-24T20:41:53.342Z,6.88
2022-10-24T20:44:40.285Z,7.17
2022-10-24T20:47:28.564Z,13.52
2022-10-24T20:50:14.451Z,15.48
2022-10-24T20:52:59.899Z,11.40
2022-10-24T20:55:45.930Z,9.02
2022-10-24T20:58:31.335Z,12.13
2022-10-24T21:01:21.504Z,15.60
2022-10-24T21:04:07.494Z,18.35
2022-10-24T21:06:53.847Z,15.25
2022-10-24T21:09:39.340Z,9.55
2022-10-24T21:12:25.631Z,8.10
2022-10-24T21:15:11.527Z,7.95
2022-10-24T21:17:57.111Z,7.93
2022-10-24T21:20:42.514Z,14.07
2022-10-24T21:23:28.570Z,11.95
2022-10-24T21:26:14.142Z,8.95
2022-10-24T21:29:08.966Z,8.80
2022-10-24T21:32:06.034Z,11.15
2022-10-24T21:34:52.067Z,11.30
2022-10-24T21:37:37.466Z,11.13
2022-10-24T21:40:23.530Z,7.75
2022-10-24T21:43:09.116Z,6.82
2022-10-24T21:46:10.993Z,6.18
2022-10-24T21:48:56.990Z,6.95
2022-10-24T21:51:44.855Z,6.43
2022-10-24T21:54:30.499Z,6.72
2022-10-24T21:57:16.155Z,7.93
2022-10-24T22:00:01.887Z,6.20
2022-10-24T22:02:47.776Z,7.88
2022-10-24T22:05:33.730Z,13.02
2022-10-24T22:08:19.495Z,11.60
2022-10-24T22:11:07.632Z,15.82
2022-10-24T22:13:53.771Z,16.55
2022-10-24T22:16:39.562Z,12.23
2022-10-24T22:19:25.596Z,9.85
2022-10-24T22:22:10.919Z,8.15
2022-10-24T22:24:57.147Z,8.75
2022-10-24T22:27:42.845Z,9.85
2022-10-24T22:30:28.768Z,9.63
2022-10-24T22:33:22.149Z,10.50
2022-10-24T22:36:18.221Z,13.00
2022-10-24T22:39:05.074Z,13.15
2022-10-24T22:41:51.422Z,12.02
2022-10-24T22:44:37.779Z,7.97
2022-10-24T22:47:36.671Z,8.60
2022-10-24T22:50:32.081Z,6.93
2022-10-24T22:53:26.179Z,6.78
2022-10-24T22:56:22.831Z,6.85
2022-10-24T22:59:08.547Z,8.20
2022-10-24T23:02:19.820Z,5.97
2022-10-24T23:05:19.579Z,6.80
2022-10-24T23:08:07.257Z,6.70
2022-10-24T23:10:52.947Z,6.50
2022-10-24T23:13:40.028Z,7.50
2022-10-24T23:16:44.548Z,9.05
2022-10-24T23:19:32.020Z,13.00
2022-10-24T23:22:22.769Z,9.65
2022-10-24T23:25:09.395Z,9.48
2022-10-24T23:28:19.457Z,7.78
2022-10-24T23:31:05.398Z,7.30
2022-10-24T23:33:51.715Z,7.07
2022-10-24T23:36:37.606Z,7.55
2022-10-24T23:39:25.095Z,10.10
2022-10-24T23:42:11.179Z,9.43
2022-10-24T23:44:57.242Z,9.10
2022-10-24T23:47:51.817Z,8.85
2022-10-24T23:50:56.888Z,7.95
2022-10-24T23:53:53.698Z,6.85
2022-10-24T23:56:39.941Z,8.52
2022-10-24T23:59:25.271Z,8.15
